createdAt,value
2023-04-17T00:00:58.449Z,34.09
2023-04-17T00:02:02.512Z,34.04
2023-04-17T00:03:04.984Z,34.06
2023-04-17T00:04:11.402Z,34.04
2023-04-17T00:05:14.027Z,34.11
2023-04-17T00:06:16.446Z,34.12
2023-04-17T00:07:22.524Z,33.91
2023-04-17T00:08:24.979Z,33.95
2023-04-17T00:09:27.623Z,34.12
2023-04-17T00:10:30.524Z,33.87
2023-04-17T00:11:32.947Z,34.16
2023-04-17T00:12:35.872Z,34.00
2023-04-17T00:13:38.217Z,33.99
2023-04-17T00:14:40.461Z,34.11
2023-04-17T00:15:44.436Z,34.04
2023-04-17T00:16:46.763Z,33.86
2023-04-17T00:17:49.207Z,34.02
2023-04-17T00:18:51.830Z,33.95
2023-04-17T00:19:54.200Z,33.96
2023-04-17T00:20:57.137Z,33.83
2023-04-17T00:21:59.553Z,33.87
2023-04-17T00:23:02.218Z,33.69
2023-04-17T00:24:04.634Z,33.84
2023-04-17T00:25:07.668Z,33.79
2023-04-17T00:26:09.933Z,33.90
2023-04-17T00:27:12.817Z,33.83
2023-04-17T00:28:15.356Z,33.83
2023-04-17T00:29:17.886Z,33.71
2023-04-17T00:30:20.246Z,33.97
2023-04-17T00:31:22.917Z,33.83
2023-04-17T00:32:25.279Z,33.94
2023-04-17T00:33:27.816Z,34.08
2023-04-17T00:34:30.169Z,33.59
2023-04-17T00:35:32.538Z,33.82
2023-04-17T00:36:35.152Z,33.92
2023-04-17T00:37:37.410Z,33.97
2023-04-17T00:38:39.953Z,33.70
2023-04-17T00:39:42.365Z,33.84
2023-04-17T00:40:48.919Z,33.81
2023-04-17T00:41:51.293Z,33.62
2023-04-17T00:42:56.176Z,33.85
2023-04-17T00:43:58.789Z,33.60
2023-04-17T00:45:01.154Z,33.71
2023-04-17T00:46:05.760Z,33.66
2023-04-17T00:47:08.502Z,33.61
2023-04-17T00:48:13.342Z,33.72
2023-04-17T00:49:16.005Z,33.64
2023-04-17T00:50:19.218Z,33.65
2023-04-17T00:51:22.062Z,33.54
2023-04-17T00:52:29.965Z,33.75
2023-04-17T00:53:33.013Z,33.84
2023-04-17T00:54:36.558Z,33.68
2023-04-17T00:55:41.720Z,33.48
2023-04-17T00:56:45.721Z,33.49
2023-04-17T00:57:49.420Z,33.80
2023-04-17T00:58:52.064Z,33.58
2023-04-17T00:59:56.568Z,33.59
2023-04-17T01:00:59.838Z,33.68
2023-04-17T01:02:02.661Z,33.73
2023-04-17T01:03:05.745Z,33.44
2023-04-17T01:04:12.805Z,33.51
2023-04-17T01:05:15.353Z,33.48
2023-04-17T01:06:18.655Z,33.67
2023-04-17T01:07:21.199Z,33.59
2023-04-17T01:08:23.870Z,33.70
2023-04-17T01:09:26.419Z,33.59
2023-04-17T01:10:29.018Z,33.56
2023-04-17T01:11:31.294Z,33.77
2023-04-17T01:12:33.596Z,33.24
2023-04-17T01:13:44.289Z,33.71
2023-04-17T01:14:46.730Z,33.39
2023-04-17T01:15:49.108Z,33.58
2023-04-17T01:16:51.690Z,33.59
2023-04-17T01:17:54.147Z,33.61
2023-04-17T01:18:56.526Z,33.63
2023-04-17T01:19:59.490Z,33.50
2023-04-17T01:21:03.368Z,33.47
2023-04-17T01:22:05.637Z,33.44
2023-04-17T01:23:08.541Z,33.63
2023-04-17T01:24:11.018Z,33.51
2023-04-17T01:25:13.265Z,33.42
2023-04-17T01:26:23.848Z,33.36
2023-04-17T01:27:26.159Z,33.65
2023-04-17T01:28:28.468Z,33.48
2023-04-17T01:29:31.238Z,33.37
2023-04-17T01:30:35.378Z,33.50
2023-04-17T01:31:37.833Z,33.45
2023-04-17T01:32:40.159Z,33.53
2023-04-17T01:33:42.968Z,33.33
2023-04-17T01:34:45.334Z,33.45
2023-04-17T01:35:47.946Z,33.43
2023-04-17T01:36:50.268Z,33.75
2023-04-17T01:37:52.511Z,33.36
2023-04-17T01:38:54.836Z,33.35
2023-04-17T01:39:58.388Z,33.42
2023-04-17T01:41:08.154Z,33.60
2023-04-17T01:42:10.523Z,33.45
2023-04-17T01:43:12.855Z,33.56
2023-04-17T01:44:15.201Z,33.35
2023-04-17T01:45:17.555Z,33.48
2023-04-17T01:46:19.909Z,33.26
2023-04-17T01:47:22.287Z,33.37
2023-04-17T01:48:24.551Z,33.55
2023-04-17T01:49:27.015Z,33.40
2023-04-17T01:50:29.664Z,33.38
2023-04-17T01:51:32.200Z,33.29
2023-04-17T01:52:34.924Z,33.20
2023-04-17T01:53:38.026Z,33.46
2023-04-17T01:54:40.253Z,33.33
2023-04-17T01:55:42.777Z,33.26
2023-04-17T01:56:45.328Z,33.42
2023-04-17T01:57:49.201Z,33.46
2023-04-17T01:58:51.729Z,33.45
2023-04-17T01:59:53.987Z,33.23
2023-04-17T02:00:56.229Z,33.41
2023-04-17T02:01:58.588Z,33.33
2023-04-17T02:03:01.037Z,33.16
2023-04-17T02:04:03.670Z,33.42
2023-04-17T02:05:06.519Z,33.19
2023-04-17T02:06:08.895Z,33.44
2023-04-17T02:07:11.310Z,33.38
2023-04-17T02:08:14.321Z,33.19
2023-04-17T02:09:16.657Z,33.37
2023-04-17T02:10:19.291Z,33.25
2023-04-17T02:11:21.972Z,33.14
2023-04-17T02:12:24.221Z,33.68
2023-04-17T02:13:27.035Z,33.49
2023-04-17T02:14:31.489Z,33.51
2023-04-17T02:15:33.859Z,33.27
2023-04-17T02:16:37.892Z,33.36
2023-04-17T02:17:40.390Z,33.43
2023-04-17T02:18:42.793Z,33.26
2023-04-17T02:19:45.085Z,33.12
2023-04-17T02:20:47.414Z,33.23
2023-04-17T02:21:49.680Z,33.24
2023-04-17T02:22:51.977Z,33.25
2023-04-17T02:23:54.405Z,33.30
2023-04-17T02:24:56.935Z,33.60
2023-04-17T02:25:59.247Z,33.19
2023-04-17T02:27:02.055Z,33.17
2023-04-17T02:28:04.823Z,33.30
2023-04-17T02:29:07.176Z,33.27
2023-04-17T02:30:09.883Z,33.35
2023-04-17T02:31:12.560Z,33.24
2023-04-17T02:32:16.884Z,33.19
2023-04-17T02:33:19.135Z,33.21
2023-04-17T02:34:21.433Z,33.30
2023-04-17T02:35:32.190Z,33.17
2023-04-17T02:36:34.561Z,33.24
2023-04-17T02:37:37.321Z,33.16
2023-04-17T02:38:39.622Z,33.18
2023-04-17T02:39:41.957Z,33.38
2023-04-17T02:40:44.338Z,33.20
2023-04-17T02:41:46.622Z,33.18
2023-04-17T02:42:48.945Z,33.39
2023-04-17T02:43:51.680Z,33.24
2023-04-17T02:44:53.955Z,33.38
2023-04-17T02:45:56.245Z,33.11
2023-04-17T02:46:58.881Z,33.12
2023-04-17T02:48:02.273Z,33.14
2023-04-17T02:49:04.640Z,33.05
2023-04-17T02:50:07.554Z,33.28
2023-04-17T02:51:09.815Z,33.30
2023-04-17T02:52:12.142Z,33.12
2023-04-17T02:53:14.486Z,33.24
2023-04-17T02:54:16.750Z,33.13
2023-04-17T02:55:19.142Z,33.25
2023-04-17T02:56:21.494Z,33.24
2023-04-17T02:57:24.384Z,33.32
2023-04-17T02:58:26.665Z,33.10
2023-04-17T02:59:28.914Z,33.13
2023-04-17T03:00:31.167Z,32.91
2023-04-17T03:01:34.075Z,33.17
2023-04-17T03:02:36.690Z,33.13
2023-04-17T03:03:42.039Z,33.31
2023-04-17T03:04:44.583Z,33.03
2023-04-17T03:05:46.969Z,33.14
2023-04-17T03:06:49.188Z,33.08
2023-04-17T03:07:52.071Z,33.16
2023-04-17T03:08:54.264Z,33.07
2023-04-17T03:09:57.646Z,33.29
2023-04-17T03:10:59.896Z,33.01
2023-04-17T03:12:02.236Z,33.22
2023-04-17T03:13:04.579Z,33.35
2023-04-17T03:14:06.910Z,33.05
2023-04-17T03:15:10.010Z,33.28
2023-04-17T03:16:12.304Z,33.13
2023-04-17T03:17:15.002Z,33.21
2023-04-17T03:18:17.253Z,33.21
2023-04-17T03:19:19.504Z,33.24
2023-04-17T03:20:21.741Z,33.00
2023-04-17T03:21:24.299Z,33.19
2023-04-17T03:22:26.575Z,33.25
2023-04-17T03:23:28.871Z,33.18
2023-04-17T03:24:31.514Z,32.95
2023-04-17T03:25:34.191Z,33.14
2023-04-17T03:26:36.637Z,33.06
2023-04-17T03:27:38.916Z,33.21
2023-04-17T03:28:41.133Z,33.07
2023-04-17T03:29:43.381Z,33.19
2023-04-17T03:30:45.559Z,33.06
2023-04-17T03:31:47.777Z,33.04
2023-04-17T03:32:50.239Z,32.99
2023-04-17T03:33:52.540Z,33.17
2023-04-17T03:34:54.761Z,33.11
2023-04-17T03:35:56.936Z,33.02
2023-04-17T03:36:59.367Z,33.20
2023-04-17T03:38:01.909Z,33.11
2023-04-17T03:39:04.241Z,33.09
2023-04-17T03:40:07.392Z,33.20
2023-04-17T03:41:10.280Z,33.11
2023-04-17T03:42:14.531Z,33.07
2023-04-17T03:43:16.796Z,33.04
2023-04-17T03:44:19.157Z,33.18
2023-04-17T03:45:21.537Z,33.20
2023-04-17T03:46:23.850Z,33.08
2023-04-17T03:47:26.077Z,33.16
2023-04-17T03:48:28.293Z,33.13
2023-04-17T03:49:30.557Z,33.24
2023-04-17T03:50:32.946Z,33.15
2023-04-17T03:51:35.400Z,32.96
2023-04-17T03:52:37.733Z,33.03
2023-04-17T03:53:40.177Z,33.10
2023-04-17T03:54:42.495Z,33.06
2023-04-17T03:55:44.723Z,33.28
2023-04-17T03:56:46.991Z,33.19
2023-04-17T03:57:51.148Z,33.19
2023-04-17T03:58:53.376Z,33.01
2023-04-17T03:59:55.672Z,33.14
2023-04-17T04:00:58.511Z,33.00
2023-04-17T04:02:01.274Z,33.01
2023-04-17T04:03:04.560Z,33.05
2023-04-17T04:04:07.135Z,32.89
2023-04-17T04:05:09.817Z,33.01
2023-04-17T04:06:12.108Z,33.32
2023-04-17T04:07:14.330Z,33.24
2023-04-17T04:08:16.790Z,33.14
2023-04-17T04:09:19.123Z,33.07
2023-04-17T04:10:21.442Z,33.06
2023-04-17T04:11:24.110Z,32.94
2023-04-17T04:12:26.485Z,33.04
2023-04-17T04:13:28.721Z,33.03
2023-04-17T04:14:30.953Z,33.16
2023-04-17T04:15:33.185Z,33.15
2023-04-17T04:16:35.571Z,33.09
2023-04-17T04:17:37.872Z,32.98
2023-04-17T04:18:40.315Z,33.08
2023-04-17T04:19:43.569Z,33.04
2023-04-17T04:20:46.018Z,33.16
2023-04-17T04:21:48.299Z,33.07
2023-04-17T04:22:50.706Z,33.08
2023-04-17T04:23:52.993Z,33.18
2023-04-17T04:24:55.393Z,33.05
2023-04-17T04:25:57.957Z,33.14
2023-04-17T04:27:06.757Z,33.12
2023-04-17T04:28:10.548Z,33.02
2023-04-17T04:29:13.850Z,33.01
2023-04-17T04:30:17.036Z,32.91
2023-04-17T04:31:19.517Z,33.17
2023-04-17T04:32:21.933Z,33.07
2023-04-17T04:33:24.619Z,33.33
2023-04-17T04:34:29.579Z,32.96
2023-04-17T04:35:31.874Z,33.21
2023-04-17T04:36:36.310Z,32.99
2023-04-17T04:37:38.933Z,33.18
2023-04-17T04:38:41.204Z,33.08
2023-04-17T04:39:43.605Z,33.01
2023-04-17T04:40:52.151Z,33.01
2023-04-17T04:41:55.649Z,33.29
2023-04-17T04:42:58.706Z,33.16
2023-04-17T04:44:01.533Z,33.10
2023-04-17T04:45:04.790Z,33.17
2023-04-17T04:46:07.096Z,33.01
2023-04-17T04:47:09.429Z,32.94
2023-04-17T04:48:11.703Z,33.10
2023-04-17T04:49:14.290Z,33.16
2023-04-17T04:50:16.989Z,32.97
2023-04-17T04:51:19.559Z,33.19
2023-04-17T04:52:21.797Z,33.16
2023-04-17T04:53:24.767Z,33.11
2023-04-17T04:54:27.065Z,33.02
2023-04-17T04:55:30.715Z,33.26
2023-04-17T04:56:33.238Z,33.27
2023-04-17T04:57:36.309Z,33.11
2023-04-17T04:58:38.709Z,33.00
2023-04-17T04:59:40.981Z,33.17
2023-04-17T05:00:43.750Z,32.96
2023-04-17T05:01:46.302Z,33.11
2023-04-17T05:02:48.892Z,33.19
2023-04-17T05:03:51.457Z,33.04
2023-04-17T05:04:53.862Z,33.12
2023-04-17T05:05:56.164Z,32.90
2023-04-17T05:06:58.394Z,33.25
2023-04-17T05:08:00.712Z,33.01
2023-04-17T05:09:03.093Z,33.17
2023-04-17T05:10:06.685Z,32.99
2023-04-17T05:11:09.167Z,33.15
2023-04-17T05:12:11.475Z,33.12
2023-04-17T05:13:13.793Z,33.00
2023-04-17T05:14:16.104Z,33.05
2023-04-17T05:15:18.521Z,32.99
2023-04-17T05:16:21.300Z,33.13
2023-04-17T05:17:23.662Z,33.02
2023-04-17T05:18:26.549Z,33.17
2023-04-17T05:19:30.786Z,32.99
2023-04-17T05:20:33.140Z,32.96
2023-04-17T05:21:35.410Z,33.00
2023-04-17T05:22:37.958Z,32.86
2023-04-17T05:23:40.501Z,33.02
2023-04-17T05:24:42.779Z,33.09
2023-04-17T05:25:45.070Z,33.16
2023-04-17T05:26:47.385Z,32.96
2023-04-17T05:27:49.682Z,33.04
2023-04-17T05:28:51.901Z,32.88
2023-04-17T05:29:54.109Z,33.03
2023-04-17T05:30:57.008Z,32.98
2023-04-17T05:31:59.471Z,32.79
2023-04-17T05:33:02.052Z,32.97
2023-04-17T05:34:04.440Z,33.16
2023-04-17T05:35:07.380Z,33.09
2023-04-17T05:36:09.850Z,32.97
2023-04-17T05:37:12.366Z,33.13
2023-04-17T05:38:15.050Z,33.16
2023-04-17T05:39:18.217Z,33.17
2023-04-17T05:40:20.548Z,33.02
2023-04-17T05:41:22.867Z,32.94
2023-04-17T05:42:25.116Z,33.35
2023-04-17T05:43:27.851Z,33.43
2023-04-17T05:44:31.134Z,33.24
2023-04-17T05:45:33.431Z,33.08
2023-04-17T05:46:35.989Z,33.28
2023-04-17T05:47:38.675Z,33.33
2023-04-17T05:48:41.204Z,33.22
2023-04-17T05:49:44.292Z,33.25
2023-04-17T05:50:47.312Z,33.06
2023-04-17T05:51:49.928Z,33.27
2023-04-17T05:52:52.348Z,33.14
2023-04-17T05:53:54.530Z,33.45
2023-04-17T05:54:56.892Z,33.26
2023-04-17T05:55:59.267Z,33.07
2023-04-17T05:57:03.193Z,33.32
2023-04-17T05:58:16.843Z,33.14
2023-04-17T05:59:25.316Z,33.24
2023-04-17T06:00:27.903Z,33.25
2023-04-17T06:01:31.010Z,32.97
2023-04-17T06:02:33.423Z,33.07
2023-04-17T06:03:36.344Z,33.02
2023-04-17T06:04:39.113Z,33.13
2023-04-17T06:05:41.644Z,33.21
2023-04-17T06:06:44.016Z,33.19
2023-04-17T06:07:46.322Z,33.15
2023-04-17T06:08:48.845Z,33.08
2023-04-17T06:09:51.177Z,33.27
2023-04-17T06:10:53.754Z,33.32
2023-04-17T06:11:56.652Z,33.22
2023-04-17T06:13:00.612Z,33.09
2023-04-17T06:14:02.970Z,33.22
2023-04-17T06:15:08.956Z,33.04
2023-04-17T06:16:11.644Z,33.18
2023-04-17T06:17:14.035Z,33.17
2023-04-17T06:18:17.590Z,33.21
2023-04-17T06:19:20.819Z,32.99
2023-04-17T06:20:23.240Z,33.26
2023-04-17T06:21:26.305Z,32.93
2023-04-17T06:22:28.674Z,33.17
2023-04-17T06:23:31.494Z,32.96
2023-04-17T06:24:34.044Z,32.90
2023-04-17T06:25:36.392Z,33.24
2023-04-17T06:26:38.627Z,33.29
2023-04-17T06:27:40.952Z,33.08
2023-04-17T06:28:43.344Z,33.04
2023-04-17T06:29:45.559Z,33.20
2023-04-17T06:30:48.192Z,33.27
2023-04-17T06:31:50.770Z,33.08
2023-04-17T06:32:53.327Z,33.32
2023-04-17T06:33:56.014Z,33.19
2023-04-17T06:34:59.656Z,33.13
2023-04-17T06:36:03.178Z,33.39
2023-04-17T06:37:05.568Z,33.23
2023-04-17T06:38:08.969Z,33.12
2023-04-17T06:39:11.554Z,33.34
2023-04-17T06:40:14.164Z,33.32
2023-04-17T06:41:16.517Z,33.54
2023-04-17T06:42:20.656Z,33.65
2023-04-17T06:43:22.963Z,33.36
2023-04-17T06:44:25.229Z,33.69
2023-04-17T06:45:27.499Z,33.63
2023-04-17T06:46:29.734Z,33.72
2023-04-17T06:47:32.316Z,33.92
2023-04-17T06:48:34.689Z,33.92
2023-04-17T06:49:36.979Z,34.04
2023-04-17T06:50:39.347Z,34.02
2023-04-17T06:51:45.686Z,33.95
2023-04-17T06:52:47.949Z,33.98
2023-04-17T06:53:50.330Z,33.93
2023-04-17T06:54:54.614Z,34.07
2023-04-17T06:55:56.882Z,34.23
2023-04-17T06:56:59.193Z,34.05
2023-04-17T06:58:01.485Z,34.27
2023-04-17T06:59:03.774Z,34.12
2023-04-17T07:00:07.140Z,34.24
2023-04-17T07:01:10.234Z,34.15
2023-04-17T07:02:12.627Z,34.05
2023-04-17T07:03:15.142Z,33.95
2023-04-17T07:04:18.015Z,33.95
2023-04-17T07:05:20.366Z,34.16
2023-04-17T07:06:24.234Z,34.04
2023-04-17T07:07:27.961Z,33.97
2023-04-17T07:08:30.550Z,33.96
2023-04-17T07:09:32.844Z,34.16
2023-04-17T07:10:35.178Z,34.07
2023-04-17T07:11:37.434Z,34.01
2023-04-17T07:12:40.025Z,33.95
2023-04-17T07:13:42.303Z,34.17
2023-04-17T07:14:44.580Z,34.13
2023-04-17T07:15:53.637Z,34.27
2023-04-17T07:16:55.984Z,34.11
2023-04-17T07:17:58.486Z,33.97
2023-04-17T07:19:00.715Z,34.25
2023-04-17T07:20:05.515Z,33.97
2023-04-17T07:21:07.740Z,34.04
2023-04-17T07:22:10.217Z,34.16
2023-04-17T07:23:12.499Z,34.29
2023-04-17T07:24:14.990Z,34.28
2023-04-17T07:25:17.321Z,34.16
2023-04-17T07:26:19.639Z,34.21
2023-04-17T07:27:21.986Z,34.20
2023-04-17T07:28:25.074Z,34.23
2023-04-17T07:29:27.381Z,33.99
2023-04-17T07:30:29.624Z,34.29
2023-04-17T07:31:32.216Z,34.23
2023-04-17T07:32:36.134Z,34.12
2023-04-17T07:33:40.421Z,34.10
2023-04-17T07:34:42.915Z,34.37
2023-04-17T07:35:45.195Z,34.33
2023-04-17T07:36:49.758Z,34.21
2023-04-17T07:37:52.352Z,34.18
2023-04-17T07:38:54.623Z,34.42
2023-04-17T07:39:56.875Z,33.97
2023-04-17T07:40:59.898Z,34.27
2023-04-17T07:42:06.358Z,34.35
2023-04-17T07:43:08.697Z,34.34
2023-04-17T07:44:11.012Z,34.29
2023-04-17T07:45:13.299Z,34.34
2023-04-17T07:46:15.600Z,34.45
2023-04-17T07:47:17.907Z,34.34
2023-04-17T07:48:22.374Z,34.43
2023-04-17T07:49:24.706Z,34.41
2023-04-17T07:50:26.993Z,34.26
2023-04-17T07:51:31.611Z,34.30
2023-04-17T07:52:33.875Z,34.15
2023-04-17T07:53:37.330Z,33.96
2023-04-17T07:54:39.743Z,34.31
2023-04-17T07:55:42.043Z,34.04
2023-04-17T07:56:46.673Z,34.28
2023-04-17T07:57:51.579Z,34.32
2023-04-17T07:58:53.910Z,34.01
2023-04-17T07:59:56.671Z,34.04
2023-04-17T08:00:59.002Z,34.07
2023-04-17T08:02:01.419Z,34.16
2023-04-17T08:03:04.520Z,34.13
2023-04-17T08:04:07.032Z,34.13
2023-04-17T08:05:10.128Z,34.09
2023-04-17T08:06:12.401Z,34.02
2023-04-17T08:07:14.707Z,34.12
2023-04-17T08:08:16.957Z,34.17
2023-04-17T08:09:20.474Z,33.97
2023-04-17T08:10:22.775Z,34.03
2023-04-17T08:11:25.417Z,34.06
2023-04-17T08:12:27.704Z,34.14
2023-04-17T08:13:32.853Z,34.07
2023-04-17T08:14:35.214Z,33.96
2023-04-17T08:15:40.823Z,33.85
2023-04-17T08:16:43.548Z,34.04
2023-04-17T08:17:45.898Z,33.97
2023-04-17T08:18:48.365Z,34.13
2023-04-17T08:19:53.420Z,33.93
2023-04-17T08:20:55.884Z,33.94
2023-04-17T08:22:04.579Z,33.84
2023-04-17T08:23:07.247Z,34.01
2023-04-17T08:24:09.607Z,33.88
2023-04-17T08:25:13.389Z,33.75
2023-04-17T08:26:19.046Z,34.08
2023-04-17T08:27:21.768Z,34.04
2023-04-17T08:28:24.783Z,34.10
2023-04-17T08:29:27.640Z,33.96
2023-04-17T08:30:30.018Z,33.82
2023-04-17T08:31:34.442Z,34.04
2023-04-17T08:32:45.287Z,33.96
2023-04-17T08:33:47.534Z,34.07
2023-04-17T08:34:49.795Z,33.88
2023-04-17T08:35:52.273Z,33.97
2023-04-17T08:36:54.674Z,34.02
2023-04-17T08:37:59.894Z,34.18
2023-04-17T08:39:02.262Z,34.01
2023-04-17T08:40:08.939Z,34.11
2023-04-17T08:41:23.079Z,33.92
2023-04-17T08:42:25.997Z,34.02
2023-04-17T08:43:30.148Z,33.91
2023-04-17T08:44:32.442Z,34.08
2023-04-17T08:45:37.437Z,33.88
2023-04-17T08:46:40.718Z,34.02
2023-04-17T08:47:44.131Z,33.97
2023-04-17T08:48:46.818Z,34.01
2023-04-17T08:49:50.525Z,33.89
2023-04-17T08:50:53.810Z,34.00
2023-04-17T08:51:56.537Z,33.89
2023-04-17T08:52:58.869Z,33.91
2023-04-17T08:54:01.441Z,33.87
2023-04-17T08:55:03.879Z,33.94
2023-04-17T08:56:09.002Z,34.01
2023-04-17T08:57:11.603Z,33.84
2023-04-17T08:58:14.758Z,34.01
2023-04-17T08:59:18.255Z,33.92
2023-04-17T09:00:28.582Z,33.87
2023-04-17T09:01:31.102Z,33.95
2023-04-17T09:02:49.695Z,33.82
2023-04-17T09:03:52.690Z,33.68
2023-04-17T09:04:55.691Z,33.86
2023-04-17T09:05:58.236Z,33.84
2023-04-17T09:07:01.396Z,33.98
2023-04-17T09:08:20.690Z,33.62
2023-04-17T09:09:23.060Z,33.69
2023-04-17T09:10:39.086Z,33.69
2023-04-17T09:11:41.427Z,33.56
2023-04-17T09:13:00.647Z,33.63
2023-04-17T09:14:03.001Z,33.81
2023-04-17T09:15:18.253Z,33.72
2023-04-17T09:16:21.209Z,33.74
2023-04-17T09:17:23.540Z,33.76
2023-04-17T09:18:30.392Z,33.76
2023-04-17T09:19:35.113Z,33.78
2023-04-17T09:20:50.679Z,33.54
2023-04-17T09:21:54.958Z,33.40
2023-04-17T09:23:04.278Z,33.31
2023-04-17T09:24:07.484Z,33.27
2023-04-17T09:25:20.774Z,33.14
2023-04-17T09:26:25.361Z,32.96
2023-04-17T09:27:29.230Z,33.01
2023-04-17T09:28:35.341Z,33.01
2023-04-17T09:29:57.264Z,33.14
2023-04-17T09:31:01.228Z,33.17
2023-04-17T09:32:16.009Z,33.30
2023-04-17T09:33:18.282Z,33.15
2023-04-17T09:34:21.711Z,33.28
2023-04-17T09:35:28.191Z,33.34
2023-04-17T09:36:38.397Z,33.25
2023-04-17T09:37:55.001Z,33.27
2023-04-17T09:39:00.210Z,33.29
2023-04-17T09:40:07.925Z,33.42
2023-04-17T09:41:23.219Z,33.37
2023-04-17T09:42:26.364Z,33.52
2023-04-17T09:43:44.392Z,33.43
2023-04-17T09:44:46.980Z,33.41
2023-04-17T09:45:52.266Z,33.59
2023-04-17T09:46:55.634Z,33.30
2023-04-17T09:47:58.297Z,33.52
2023-04-17T09:49:10.584Z,33.58
2023-04-17T09:50:16.170Z,33.42
2023-04-17T09:51:18.462Z,33.44
2023-04-17T09:52:23.598Z,33.35
2023-04-17T09:53:26.149Z,33.52
2023-04-17T09:54:31.581Z,33.47
2023-04-17T09:55:36.620Z,33.47
2023-04-17T09:56:39.886Z,33.31
2023-04-17T09:57:44.663Z,33.54
2023-04-17T09:58:47.350Z,33.72
2023-04-17T09:59:49.929Z,33.61
2023-04-17T10:00:52.789Z,33.49
2023-04-17T10:01:55.684Z,33.64
2023-04-17T10:02:59.659Z,33.48
2023-04-17T10:04:03.404Z,33.65
2023-04-17T10:05:08.771Z,33.51
2023-04-17T10:06:11.042Z,33.69
2023-04-17T10:07:13.864Z,33.58
2023-04-17T10:08:16.884Z,33.71
2023-04-17T10:09:19.342Z,33.69
2023-04-17T10:10:33.244Z,33.71
2023-04-17T10:11:46.615Z,33.75
2023-04-17T10:12:50.460Z,33.84
2023-04-17T10:14:14.825Z,33.68
2023-04-17T10:15:18.603Z,33.71
2023-04-17T10:16:33.013Z,33.66
2023-04-17T10:17:35.492Z,34.10
2023-04-17T10:18:38.397Z,33.85
2023-04-17T10:19:40.609Z,33.79
2023-04-17T10:20:44.971Z,33.98
2023-04-17T10:21:50.731Z,33.83
2023-04-17T10:22:56.665Z,33.87
2023-04-17T10:23:59.406Z,33.82
2023-04-17T10:25:13.849Z,33.80
2023-04-17T10:26:28.264Z,33.72
2023-04-17T10:27:33.267Z,33.76
2023-04-17T10:28:49.341Z,33.89
2023-04-17T10:29:57.577Z,33.81
2023-04-17T10:31:01.346Z,33.77
2023-04-17T10:32:09.838Z,33.84
2023-04-17T10:33:20.820Z,33.77
2023-04-17T10:34:36.880Z,33.82
2023-04-17T10:35:39.444Z,33.84
2023-04-17T10:36:41.602Z,33.92
2023-04-17T10:37:52.302Z,33.99
2023-04-17T10:39:11.702Z,33.98
2023-04-17T10:40:21.045Z,33.90
2023-04-17T10:41:23.721Z,34.05
2023-04-17T10:42:28.616Z,34.06
2023-04-17T10:43:31.591Z,34.24
2023-04-17T10:44:36.054Z,34.16
2023-04-17T10:46:08.720Z,33.99
2023-04-17T10:47:14.129Z,34.04
2023-04-17T10:48:28.645Z,34.16
2023-04-17T10:49:48.902Z,33.90
2023-04-17T10:50:51.156Z,34.09
2023-04-17T10:51:53.513Z,34.23
2023-04-17T10:52:56.628Z,34.29
2023-04-17T10:54:00.732Z,34.21
2023-04-17T10:55:08.917Z,34.27
2023-04-17T10:56:17.242Z,34.37
2023-04-17T10:57:51.905Z,34.33
2023-04-17T10:58:57.711Z,33.99
2023-04-17T11:00:13.884Z,34.10
2023-04-17T11:01:16.504Z,34.07
2023-04-17T11:02:33.110Z,34.23
2023-04-17T11:03:39.522Z,34.37
2023-04-17T11:04:41.945Z,34.29
2023-04-17T11:05:47.659Z,34.42
2023-04-17T11:06:52.612Z,34.25
2023-04-17T11:07:55.344Z,34.34
2023-04-17T11:08:59.327Z,34.42
2023-04-17T11:10:06.445Z,34.21
2023-04-17T11:11:11.890Z,34.33
2023-04-17T11:12:14.205Z,34.37
2023-04-17T11:13:16.575Z,34.32
2023-04-17T11:14:23.282Z,34.42
2023-04-17T11:15:30.031Z,34.36
2023-04-17T11:16:32.346Z,34.35
2023-04-17T11:17:34.787Z,34.28
2023-04-17T11:18:38.213Z,34.28
2023-04-17T11:19:40.676Z,34.33
2023-04-17T11:20:42.840Z,34.48
2023-04-17T11:21:53.459Z,34.20
2023-04-17T11:22:56.463Z,34.41
2023-04-17T11:24:03.215Z,34.35
2023-04-17T11:25:06.199Z,34.33
2023-04-17T11:26:08.734Z,34.43
2023-04-17T11:27:11.250Z,34.38
2023-04-17T11:28:13.645Z,34.46
2023-04-17T11:29:17.107Z,34.32
2023-04-17T11:30:42.151Z,34.18
2023-04-17T11:31:46.219Z,34.30
2023-04-17T11:32:48.734Z,34.24
2023-04-17T11:33:51.587Z,34.28
2023-04-17T11:34:56.577Z,34.39
2023-04-17T11:35:58.916Z,34.29
2023-04-17T11:37:01.662Z,34.25
2023-04-17T11:38:21.395Z,34.38
2023-04-17T11:39:25.968Z,34.30
2023-04-17T11:40:30.827Z,34.32
2023-04-17T11:41:40.296Z,34.22
2023-04-17T11:42:46.217Z,34.29
2023-04-17T11:43:51.128Z,34.17
2023-04-17T11:44:53.377Z,34.29
2023-04-17T11:45:57.633Z,34.44
2023-04-17T11:47:00.100Z,34.33
2023-04-17T11:48:03.665Z,34.22
2023-04-17T11:49:08.894Z,34.23
2023-04-17T11:50:11.367Z,34.30
2023-04-17T11:51:18.732Z,34.09
2023-04-17T11:52:21.031Z,34.15
2023-04-17T11:53:23.788Z,34.22
2023-04-17T11:54:30.618Z,34.17
2023-04-17T11:55:34.456Z,34.14
2023-04-17T11:56:36.987Z,34.26
2023-04-17T11:57:45.536Z,33.95
2023-04-17T11:58:47.849Z,33.73
2023-04-17T11:59:50.122Z,33.54
2023-04-17T12:01:06.859Z,33.27
2023-04-17T12:02:09.681Z,33.17
2023-04-17T12:03:32.778Z,33.23
2023-04-17T12:04:36.600Z,32.81
2023-04-17T12:05:39.208Z,32.64
2023-04-17T12:06:41.439Z,32.72
2023-04-17T12:07:43.730Z,32.79
2023-04-17T12:08:54.179Z,32.88
2023-04-17T12:09:57.670Z,32.61
2023-04-17T12:11:00.311Z,32.51
2023-04-17T12:12:06.444Z,32.57
2023-04-17T12:13:10.294Z,32.54
2023-04-17T12:14:12.863Z,32.42
2023-04-17T12:15:15.593Z,32.27
2023-04-17T12:16:18.009Z,32.23
2023-04-17T12:17:21.250Z,32.05
2023-04-17T12:18:23.494Z,32.16
2023-04-17T12:19:27.235Z,32.02
2023-04-17T12:20:29.614Z,31.99
2023-04-17T12:21:31.886Z,31.76
2023-04-17T12:22:34.502Z,31.76
2023-04-17T12:23:36.811Z,31.76
2023-04-17T12:24:39.085Z,31.83
2023-04-17T12:25:41.368Z,31.77
2023-04-17T12:26:47.879Z,31.93
2023-04-17T12:27:50.159Z,31.88
2023-04-17T12:28:52.766Z,31.89
2023-04-17T12:29:54.999Z,32.07
2023-04-17T12:30:57.357Z,32.01
2023-04-17T12:31:59.813Z,32.09
2023-04-17T12:33:02.876Z,31.95
2023-04-17T12:34:05.412Z,31.82
2023-04-17T12:35:07.876Z,31.89
2023-04-17T12:36:10.764Z,31.91
2023-04-17T12:37:13.040Z,31.75
2023-04-17T12:38:15.541Z,31.83
2023-04-17T12:39:18.552Z,31.99
2023-04-17T12:40:24.505Z,31.96
2023-04-17T12:41:27.285Z,31.89
2023-04-17T12:42:33.605Z,31.92
2023-04-17T12:43:38.457Z,31.83
2023-04-17T12:44:40.875Z,31.65
2023-04-17T12:45:45.458Z,31.95
2023-04-17T12:46:47.921Z,31.95
2023-04-17T12:47:50.304Z,31.82
2023-04-17T12:48:58.366Z,31.78
2023-04-17T12:50:00.788Z,32.15
2023-04-17T12:51:03.050Z,32.00
2023-04-17T12:52:05.323Z,32.26
2023-04-17T12:53:08.441Z,32.16
2023-04-17T12:54:11.108Z,32.50
2023-04-17T12:55:13.667Z,32.32
2023-04-17T12:56:16.002Z,32.57
2023-04-17T12:57:18.294Z,32.31
2023-04-17T12:58:20.700Z,32.55
2023-04-17T12:59:23.052Z,32.34
2023-04-17T13:00:25.617Z,32.35
2023-04-17T13:01:28.025Z,32.46
2023-04-17T13:02:30.352Z,32.38
2023-04-17T13:03:32.751Z,31.79
2023-04-17T13:04:35.399Z,31.61
2023-04-17T13:05:37.799Z,31.53
2023-04-17T13:06:40.255Z,31.60
2023-04-17T13:07:42.614Z,31.69
2023-04-17T13:08:44.867Z,31.88
2023-04-17T13:09:47.303Z,31.96
2023-04-17T13:10:49.601Z,32.05
2023-04-17T13:11:51.842Z,32.15
2023-04-17T13:12:54.134Z,32.38
2023-04-17T13:13:56.457Z,32.22
2023-04-17T13:14:58.932Z,32.40
2023-04-17T13:16:01.317Z,32.40
2023-04-17T13:17:04.459Z,32.57
2023-04-17T13:18:08.082Z,32.56
2023-04-17T13:19:10.594Z,32.68
2023-04-17T13:20:13.288Z,32.82
2023-04-17T13:21:15.654Z,32.85
2023-04-17T13:22:18.267Z,32.85
2023-04-17T13:23:20.489Z,32.75
2023-04-17T13:24:22.757Z,32.85
2023-04-17T13:25:25.146Z,32.87
2023-04-17T13:26:27.378Z,32.86
2023-04-17T13:27:29.875Z,32.96
2023-04-17T13:28:32.271Z,32.97
2023-04-17T13:29:34.617Z,32.99
2023-04-17T13:30:37.262Z,33.10
2023-04-17T13:31:39.872Z,33.06
2023-04-17T13:32:43.140Z,33.22
2023-04-17T13:33:45.550Z,33.15
2023-04-17T13:34:48.004Z,33.04
2023-04-17T13:35:52.696Z,33.34
2023-04-17T13:36:58.389Z,33.26
2023-04-17T13:38:02.857Z,33.21
2023-04-17T13:39:09.546Z,33.20
2023-04-17T13:40:12.012Z,33.23
2023-04-17T13:41:14.224Z,33.28
2023-04-17T13:42:18.804Z,33.20